createdAt,value
2023-02-07T00:01:12.269Z,8.80
2023-02-07T00:03:41.544Z,8.80
2023-02-07T00:06:14.068Z,7.17
2023-02-07T00:08:43.308Z,8.17
2023-02-07T00:11:12.781Z,8.70
2023-02-07T00:13:40.824Z,8.40
2023-02-07T00:16:08.821Z,6.60
2023-02-07T00:18:36.968Z,10.20
2023-02-07T00:21:08.368Z,9.17
2023-02-07T00:23:37.196Z,9.37
2023-02-07T00:26:06.740Z,10.13
2023-02-07T00:28:34.869Z,9.70
2023-02-07T00:31:05.173Z,7.83
2023-02-07T00:33:33.254Z,7.60
2023-02-07T00:36:02.206Z,8.03
2023-02-07T00:38:32.794Z,10.03
2023-02-07T00:41:01.462Z,13.53
2023-02-07T00:43:30.447Z,9.53
2023-02-07T00:45:59.484Z,7.93
2023-02-07T00:48:27.963Z,11.40
2023-02-07T00:50:56.628Z,12.00
2023-02-07T00:53:24.717Z,11.83
2023-02-07T00:55:54.933Z,7.67
2023-02-07T00:58:23.890Z,10.40
2023-02-07T01:00:51.991Z,9.40
2023-02-07T01:03:20.200Z,9.37
2023-02-07T01:05:48.798Z,8.37
2023-02-07T01:08:17.010Z,10.57
2023-02-07T01:10:46.705Z,11.10
2023-02-07T01:13:17.233Z,10.10
2023-02-07T01:15:46.894Z,13.87
2023-02-07T01:18:16.515Z,10.00
2023-02-07T01:20:44.219Z,12.70
2023-02-07T01:23:13.564Z,11.63
2023-02-07T01:25:44.426Z,12.60
2023-02-07T01:28:14.396Z,12.97
2023-02-07T01:30:45.651Z,14.40
2023-02-07T01:33:14.622Z,14.90
2023-02-07T01:35:46.518Z,12.80
2023-02-07T01:38:14.589Z,14.57
2023-02-07T01:40:42.319Z,14.00
2023-02-07T01:43:16.834Z,12.50
2023-02-07T01:45:46.982Z,14.97
2023-02-07T01:48:18.826Z,14.00
2023-02-07T01:50:50.197Z,10.93
2023-02-07T01:53:22.156Z,11.93
2023-02-07T01:55:53.159Z,11.43
2023-02-07T01:58:22.360Z,13.30
2023-02-07T02:00:53.119Z,13.40
2023-02-07T02:03:21.157Z,14.17
2023-02-07T02:05:51.491Z,15.07
2023-02-07T02:08:20.466Z,15.73
2023-02-07T02:11:04.071Z,14.73
2023-02-07T02:13:41.615Z,14.63
2023-02-07T02:16:18.914Z,14.27
2023-02-07T02:19:00.632Z,14.43
2023-02-07T02:22:01.216Z,15.50
2023-02-07T02:25:05.327Z,13.87
2023-02-07T02:28:01.832Z,14.10
2023-02-07T02:30:46.985Z,20.03
2023-02-07T02:33:39.783Z,13.43
2023-02-07T02:36:17.674Z,14.20
2023-02-07T02:38:54.755Z,14.57
2023-02-07T02:41:28.289Z,14.80
2023-02-07T02:44:00.291Z,12.80
2023-02-07T02:46:31.807Z,14.60
2023-02-07T02:49:02.876Z,15.20
2023-02-07T02:51:31.560Z,14.37
2023-02-07T02:54:01.544Z,16.23
2023-02-07T02:57:01.656Z,14.93
2023-02-07T02:59:43.070Z,16.90
2023-02-07T03:02:22.767Z,14.80
2023-02-07T03:05:03.648Z,14.53
2023-02-07T03:07:48.572Z,19.70
2023-02-07T03:10:26.549Z,18.40
2023-02-07T03:12:59.646Z,16.23
2023-02-07T03:15:37.924Z,17.30
2023-02-07T03:18:13.670Z,17.80
2023-02-07T03:20:48.289Z,18.53
2023-02-07T03:23:18.360Z,19.37
2023-02-07T03:25:49.402Z,15.70
2023-02-07T03:28:21.884Z,17.77
2023-02-07T03:30:52.592Z,20.00
2023-02-07T03:33:21.109Z,19.77
2023-02-07T03:35:57.671Z,23.53
2023-02-07T03:38:25.859Z,14.80
2023-02-07T03:41:00.322Z,15.00
2023-02-07T03:43:30.778Z,13.07
2023-02-07T03:45:59.145Z,13.33
2023-02-07T03:48:26.990Z,18.00
2023-02-07T03:50:56.026Z,18.47
2023-02-07T03:53:24.168Z,17.17
2023-02-07T03:55:53.272Z,16.50
2023-02-07T03:58:21.834Z,14.40
2023-02-07T04:00:49.603Z,14.70
2023-02-07T04:03:18.093Z,18.10
2023-02-07T04:05:46.833Z,12.43
2023-02-07T04:08:15.898Z,13.63
2023-02-07T04:10:43.920Z,13.67
2023-02-07T04:13:11.657Z,14.50
2023-02-07T04:15:40.075Z,13.50
2023-02-07T04:18:07.793Z,15.63
2023-02-07T04:20:35.537Z,15.13
2023-02-07T04:23:03.928Z,11.20
2023-02-07T04:25:32.901Z,14.53
2023-02-07T04:28:01.025Z,13.70
2023-02-07T04:30:28.725Z,18.77
2023-02-07T04:32:57.404Z,14.33
2023-02-07T04:35:25.575Z,14.23
2023-02-07T04:37:53.494Z,14.03
2023-02-07T04:40:21.469Z,14.33
2023-02-07T04:42:50.579Z,15.27
2023-02-07T04:45:18.781Z,14.37
2023-02-07T04:47:46.424Z,14.00
2023-02-07T04:50:15.192Z,12.43
2023-02-07T04:52:43.030Z,12.77
2023-02-07T04:55:11.970Z,16.40
2023-02-07T04:57:39.771Z,16.87
2023-02-07T05:00:10.702Z,14.13
2023-02-07T05:02:41.203Z,14.90
2023-02-07T05:05:09.636Z,12.30
2023-02-07T05:07:39.036Z,14.20
2023-02-07T05:10:07.599Z,12.10
2023-02-07T05:12:35.421Z,16.03
2023-02-07T05:15:03.832Z,10.60
2023-02-07T05:17:35.220Z,10.10
2023-02-07T05:20:03.660Z,16.07
2023-02-07T05:22:31.564Z,16.40
2023-02-07T05:24:59.709Z,11.93
2023-02-07T05:27:27.682Z,12.73
2023-02-07T05:29:55.799Z,10.90
2023-02-07T05:32:42.154Z,18.13
2023-02-07T05:35:11.952Z,12.67
2023-02-07T05:37:40.696Z,9.17
2023-02-07T05:40:08.823Z,11.80
2023-02-07T05:42:36.655Z,14.77
2023-02-07T05:45:06.120Z,11.23
2023-02-07T05:47:33.748Z,12.57
2023-02-07T05:50:01.518Z,14.03
2023-02-07T05:52:30.519Z,16.60
2023-02-07T05:54:59.480Z,13.03
2023-02-07T05:57:27.551Z,11.73
2023-02-07T05:59:55.296Z,10.17
2023-02-07T06:02:24.054Z,11.23
2023-02-07T06:04:51.683Z,14.03
2023-02-07T06:07:19.646Z,16.37
2023-02-07T06:09:49.695Z,10.43
2023-02-07T06:12:17.400Z,14.00
2023-02-07T06:14:47.808Z,12.60
2023-02-07T06:17:15.486Z,11.13
2023-02-07T06:19:44.304Z,10.13
2023-02-07T06:22:11.982Z,10.00
2023-02-07T06:24:40.395Z,14.37
2023-02-07T06:27:09.763Z,11.97
2023-02-07T06:29:40.273Z,11.90
2023-02-07T06:32:07.930Z,12.83
2023-02-07T06:34:36.281Z,17.23
2023-02-07T06:37:04.414Z,13.77
2023-02-07T06:39:32.128Z,12.50
2023-02-07T06:42:00.162Z,13.20
2023-02-07T06:44:29.212Z,12.93
2023-02-07T06:46:57.236Z,12.33
2023-02-07T06:49:24.856Z,11.37
2023-02-07T06:51:52.862Z,10.87
2023-02-07T06:54:20.626Z,13.93
2023-02-07T06:56:48.702Z,19.57
2023-02-07T06:59:16.837Z,14.97
2023-02-07T07:01:47.740Z,15.93
2023-02-07T07:04:18.584Z,14.80
2023-02-07T07:06:48.673Z,13.70
2023-02-07T07:09:16.645Z,10.97
2023-02-07T07:11:44.860Z,19.53
2023-02-07T07:14:15.827Z,13.20
2023-02-07T07:16:43.416Z,18.47
2023-02-07T07:19:13.208Z,13.20
2023-02-07T07:21:41.155Z,12.63
2023-02-07T07:24:09.947Z,14.27
2023-02-07T07:26:48.959Z,13.83
2023-02-07T07:29:18.307Z,15.53
2023-02-07T07:31:47.251Z,13.60
2023-02-07T07:34:17.249Z,16.37
2023-02-07T07:36:45.480Z,12.73
2023-02-07T07:39:14.547Z,13.93
2023-02-07T07:41:43.097Z,14.53
2023-02-07T07:44:18.999Z,13.07
2023-02-07T07:46:46.903Z,19.50
2023-02-07T07:49:16.294Z,14.77
2023-02-07T07:51:43.921Z,12.60
2023-02-07T07:54:11.802Z,14.43
2023-02-07T07:56:39.779Z,13.27
2023-02-07T07:59:20.113Z,12.83
2023-02-07T08:01:52.040Z,16.83
2023-02-07T08:04:21.284Z,14.70
2023-02-07T08:06:48.973Z,12.83
2023-02-07T08:09:17.725Z,10.70
2023-02-07T08:11:45.461Z,12.30
2023-02-07T08:14:13.355Z,15.13
2023-02-07T08:16:41.084Z,12.37
2023-02-07T08:19:09.431Z,13.97
2023-02-07T08:21:38.737Z,14.90
2023-02-07T08:24:06.804Z,10.00
2023-02-07T08:26:35.778Z,15.60
2023-02-07T08:29:03.781Z,10.30
2023-02-07T08:31:31.855Z,13.23
2023-02-07T08:34:00.624Z,11.20
2023-02-07T08:36:28.476Z,16.07
2023-02-07T08:38:58.086Z,14.23
2023-02-07T08:41:25.930Z,13.40
2023-02-07T08:43:53.970Z,11.03
2023-02-07T08:46:21.619Z,12.30
2023-02-07T08:48:49.317Z,12.50
2023-02-07T08:51:17.864Z,11.50
2023-02-07T08:53:46.411Z,14.20
2023-02-07T08:56:15.816Z,13.13
2023-02-07T08:58:44.224Z,12.87
2023-02-07T09:01:14.141Z,13.40
2023-02-07T09:03:42.358Z,10.67
2023-02-07T09:06:11.179Z,12.47
2023-02-07T09:08:39.536Z,10.70
2023-02-07T09:11:09.494Z,15.90
2023-02-07T09:13:38.977Z,10.47
2023-02-07T09:16:07.352Z,11.07
2023-02-07T09:18:36.469Z,13.23
2023-02-07T09:21:05.173Z,13.53
2023-02-07T09:23:35.693Z,14.50
2023-02-07T09:26:07.621Z,14.77
2023-02-07T09:28:35.927Z,15.70
2023-02-07T09:31:11.154Z,15.23
2023-02-07T09:33:39.301Z,11.10
2023-02-07T09:36:08.646Z,13.13
2023-02-07T09:38:36.255Z,13.33
2023-02-07T09:41:04.704Z,13.80
2023-02-07T09:43:40.055Z,12.53
2023-02-07T09:46:18.233Z,10.10
2023-02-07T09:48:49.622Z,12.73
2023-02-07T09:51:20.727Z,12.93
2023-02-07T09:53:54.413Z,12.63
2023-02-07T09:56:25.452Z,10.53
2023-02-07T09:58:58.288Z,15.00
2023-02-07T10:01:33.693Z,10.97
2023-02-07T10:04:14.756Z,12.53
2023-02-07T10:06:45.725Z,10.13
2023-02-07T10:09:18.174Z,13.73
2023-02-07T10:11:52.714Z,15.60
2023-02-07T10:14:36.152Z,10.40
2023-02-07T10:17:31.444Z,9.47
2023-02-07T10:20:07.992Z,10.80
2023-02-07T10:22:45.172Z,12.10
2023-02-07T10:25:24.919Z,14.43
2023-02-07T10:28:04.377Z,9.83
2023-02-07T10:30:35.735Z,11.03
2023-02-07T10:33:15.374Z,10.20
2023-02-07T10:35:46.444Z,14.27
2023-02-07T10:38:24.897Z,13.63
2023-02-07T10:40:58.322Z,10.10
2023-02-07T10:43:30.483Z,13.30
2023-02-07T10:46:06.380Z,12.00
2023-02-07T10:48:37.724Z,10.70
2023-02-07T10:51:15.543Z,10.80
2023-02-07T10:53:54.249Z,8.00
2023-02-07T10:56:26.393Z,9.40
2023-02-07T10:58:55.106Z,10.10
2023-02-07T11:01:24.890Z,10.00
2023-02-07T11:03:56.011Z,11.43
2023-02-07T11:06:29.223Z,9.17
2023-02-07T11:09:20.046Z,11.00
2023-02-07T11:11:51.105Z,8.90
2023-02-07T11:14:26.349Z,11.60
2023-02-07T11:16:55.656Z,8.53
2023-02-07T11:19:27.465Z,15.50
2023-02-07T11:22:06.916Z,7.60
2023-02-07T11:24:37.693Z,11.00
2023-02-07T11:27:16.674Z,9.20
2023-02-07T11:29:49.622Z,10.80
2023-02-07T11:32:19.739Z,10.23
2023-02-07T11:34:52.458Z,11.30
2023-02-07T11:37:39.034Z,12.80
2023-02-07T11:40:26.724Z,9.40
2023-02-07T11:43:00.797Z,10.20
2023-02-07T11:45:30.156Z,12.53
2023-02-07T11:48:00.224Z,8.03
2023-02-07T11:50:31.948Z,10.07
2023-02-07T11:53:04.443Z,12.77
2023-02-07T11:55:36.598Z,9.73
2023-02-07T11:58:10.240Z,10.60
2023-02-07T12:00:39.586Z,11.63
2023-02-07T12:03:10.987Z,10.43
2023-02-07T12:05:45.322Z,12.30
2023-02-07T12:08:16.680Z,10.60
2023-02-07T12:10:49.367Z,11.57
2023-02-07T12:13:21.370Z,12.50
2023-02-07T12:15:54.413Z,11.30
2023-02-07T12:18:29.723Z,13.70
2023-02-07T12:21:07.537Z,14.10
2023-02-07T12:23:45.385Z,12.60
2023-02-07T12:26:23.460Z,13.00
2023-02-07T12:29:13.610Z,12.20
2023-02-07T12:31:51.126Z,9.27
2023-02-07T12:34:28.642Z,15.60
2023-02-07T12:37:05.373Z,10.07
2023-02-07T12:39:40.674Z,12.50
2023-02-07T12:42:26.439Z,9.93
2023-02-07T12:44:59.228Z,8.23
2023-02-07T12:47:41.697Z,9.80
2023-02-07T12:50:20.815Z,8.60
2023-02-07T12:53:01.264Z,9.13
2023-02-07T12:55:41.120Z,14.60
2023-02-07T12:58:28.774Z,6.23
2023-02-07T13:01:01.528Z,5.87
2023-02-07T13:03:57.532Z,6.40
2023-02-07T13:06:37.244Z,6.50
2023-02-07T13:09:14.258Z,8.53
2023-02-07T13:11:54.288Z,5.63
2023-02-07T13:14:35.956Z,6.20
2023-02-07T13:17:21.587Z,6.80
2023-02-07T13:19:54.407Z,6.57
2023-02-07T13:22:31.676Z,7.53
2023-02-07T13:25:03.075Z,6.50
2023-02-07T13:27:31.635Z,5.27
2023-02-07T13:30:01.852Z,4.27
2023-02-07T13:32:29.952Z,5.17
2023-02-07T13:35:02.601Z,5.53
2023-02-07T13:37:38.872Z,6.73
2023-02-07T13:40:22.971Z,6.90
2023-02-07T13:43:00.138Z,5.83
2023-02-07T13:45:40.928Z,4.43
2023-02-07T13:48:15.168Z,6.60
2023-02-07T13:50:52.681Z,5.10
2023-02-07T13:53:33.496Z,8.93
2023-02-07T13:56:05.444Z,5.77
2023-02-07T13:59:12.389Z,5.57
2023-02-07T14:01:50.232Z,4.27
2023-02-07T14:04:19.530Z,4.83
2023-02-07T14:06:58.166Z,3.00
2023-02-07T14:09:33.534Z,5.57
2023-02-07T14:12:06.190Z,3.73
2023-02-07T14:14:38.797Z,4.17
2023-02-07T14:17:13.832Z,3.90
2023-02-07T14:19:55.903Z,5.70
2023-02-07T14:22:26.774Z,3.53
2023-02-07T14:25:25.322Z,3.70
2023-02-07T14:28:20.504Z,4.33
2023-02-07T14:31:01.865Z,4.13
2023-02-07T14:33:35.787Z,5.20
2023-02-07T14:36:08.114Z,4.30
2023-02-07T14:38:38.733Z,3.87
2023-02-07T14:41:13.003Z,4.10
2023-02-07T14:43:59.762Z,6.37
2023-02-07T14:46:37.533Z,6.80
2023-02-07T14:49:12.462Z,6.17
2023-02-07T14:51:44.775Z,4.90
2023-02-07T14:54:20.499Z,7.70
2023-02-07T14:56:53.526Z,4.60
2023-02-07T14:59:29.467Z,6.00
2023-02-07T15:01:58.406Z,4.20
2023-02-07T15:04:26.072Z,6.27
2023-02-07T15:06:53.996Z,5.30
2023-02-07T15:09:26.405Z,5.97
2023-02-07T15:12:10.583Z,6.20
2023-02-07T15:14:45.623Z,13.77
2023-02-07T15:17:15.224Z,6.03
2023-02-07T15:19:43.396Z,4.53
2023-02-07T15:22:25.599Z,5.93
2023-02-07T15:24:57.735Z,4.40
2023-02-07T15:27:28.432Z,6.30
2023-02-07T15:30:13.119Z,4.50
2023-02-07T15:35:39.399Z,5.53
2023-02-07T15:38:19.321Z,6.43
2023-02-07T15:40:47.281Z,7.07
2023-02-07T15:43:27.447Z,7.13
2023-02-07T15:46:08.005Z,7.60
2023-02-07T15:48:48.464Z,7.03
2023-02-07T15:51:19.182Z,7.60
2023-02-07T15:53:53.345Z,7.23
2023-02-07T15:56:21.298Z,7.70
2023-02-07T15:58:50.458Z,5.60
2023-02-07T16:01:34.254Z,5.97
2023-02-07T16:04:04.777Z,8.67
2023-02-07T16:06:33.579Z,7.67
2023-02-07T16:09:04.437Z,5.40
2023-02-07T16:11:41.179Z,7.83
2023-02-07T16:14:31.624Z,6.00
2023-02-07T16:17:00.628Z,6.20
2023-02-07T16:19:46.905Z,5.10
2023-02-07T16:22:17.810Z,7.10
2023-02-07T16:24:48.481Z,9.53
2023-02-07T16:27:20.854Z,8.70
2023-02-07T16:29:48.916Z,8.50
2023-02-07T16:32:18.298Z,7.10
2023-02-07T16:34:59.008Z,6.90
2023-02-07T16:37:28.037Z,7.93
2023-02-07T16:39:55.671Z,9.10
2023-02-07T16:42:23.394Z,12.43
2023-02-07T16:44:51.334Z,8.47
2023-02-07T16:47:21.515Z,7.30
2023-02-07T16:49:49.691Z,8.03
2023-02-07T16:52:18.382Z,8.93
2023-02-07T16:54:47.101Z,8.80
2023-02-07T16:57:15.770Z,8.40
2023-02-07T16:59:44.527Z,9.20
2023-02-07T17:02:15.473Z,10.67
2023-02-07T17:04:44.492Z,7.73
2023-02-07T17:07:13.739Z,12.33
2023-02-07T17:09:43.496Z,9.23
2023-02-07T17:12:14.345Z,9.37
2023-02-07T17:14:42.385Z,9.10
2023-02-07T17:17:12.002Z,9.23
2023-02-07T17:19:39.561Z,9.80
2023-02-07T17:22:08.867Z,10.83
2023-02-07T17:24:36.449Z,11.20
2023-02-07T17:27:04.108Z,8.40
2023-02-07T17:29:31.771Z,9.37
2023-02-07T17:32:03.940Z,13.37
2023-02-07T17:34:32.656Z,11.90
2023-02-07T17:37:00.537Z,9.83
2023-02-07T17:39:29.639Z,12.03
2023-02-07T17:41:57.942Z,11.97
2023-02-07T17:44:25.554Z,11.17
2023-02-07T17:46:53.879Z,10.53
2023-02-07T17:49:21.555Z,10.70
2023-02-07T17:51:51.446Z,9.97
2023-02-07T17:54:19.448Z,7.03
2023-02-07T17:56:48.522Z,13.37
2023-02-07T17:59:23.338Z,12.47
2023-02-07T18:01:52.355Z,13.77
2023-02-07T18:04:20.062Z,26.33
2023-02-07T18:06:48.160Z,30.00
2023-02-07T18:09:34.462Z,27.33
2023-02-07T18:12:05.189Z,18.07
2023-02-07T18:14:34.876Z,22.30
2023-02-07T18:17:02.513Z,17.70
2023-02-07T18:19:32.722Z,14.40
2023-02-07T18:22:00.844Z,18.20
2023-02-07T18:24:29.029Z,11.33
2023-02-07T18:26:56.969Z,9.30
2023-02-07T18:29:27.524Z,13.23
2023-02-07T18:31:56.522Z,10.90
2023-02-07T18:34:24.446Z,10.30
2023-02-07T18:36:52.463Z,14.03
2023-02-07T18:39:23.312Z,8.77
2023-02-07T18:41:51.485Z,12.60
2023-02-07T18:44:20.818Z,11.50
2023-02-07T18:46:50.260Z,15.60
2023-02-07T18:49:20.895Z,10.30
2023-02-07T18:51:49.128Z,12.47
2023-02-07T18:54:19.302Z,9.30
2023-02-07T18:56:52.375Z,10.30
2023-02-07T18:59:20.855Z,9.53
2023-02-07T19:01:51.718Z,9.23
2023-02-07T19:04:19.436Z,10.10
2023-02-07T19:06:50.747Z,9.77
2023-02-07T19:09:19.545Z,9.63
2023-02-07T19:11:51.705Z,9.93
2023-02-07T19:14:23.126Z,10.37
2023-02-07T19:16:54.488Z,7.73
2023-02-07T19:19:24.298Z,10.00
2023-02-07T19:21:52.918Z,8.57
2023-02-07T19:24:21.588Z,10.00
2023-02-07T19:26:51.140Z,12.77
2023-02-07T19:29:27.804Z,12.87
2023-02-07T19:31:57.448Z,9.40
2023-02-07T19:34:28.532Z,9.40
2023-02-07T19:36:59.181Z,12.10
2023-02-07T19:39:27.817Z,12.50
2023-02-07T19:41:55.649Z,11.90
2023-02-07T19:44:23.540Z,9.70
2023-02-07T19:46:51.405Z,11.17
2023-02-07T19:49:20.582Z,10.83
2023-02-07T19:51:50.888Z,14.53
2023-02-07T19:54:19.150Z,10.03
2023-02-07T19:56:47.013Z,12.43
2023-02-07T19:59:15.150Z,10.10
2023-02-07T20:01:42.788Z,12.53
2023-02-07T20:04:11.089Z,15.13
2023-02-07T20:06:40.133Z,13.47
2023-02-07T20:09:08.695Z,11.93
2023-02-07T20:11:36.657Z,10.63
2023-02-07T20:14:05.972Z,12.30
2023-02-07T20:16:37.677Z,14.60
2023-02-07T20:19:06.736Z,14.10
2023-02-07T20:21:36.695Z,15.60
2023-02-07T20:24:07.732Z,12.10
2023-02-07T20:26:37.425Z,20.53
2023-02-07T20:29:09.637Z,18.53
2023-02-07T20:31:38.192Z,11.30
2023-02-07T20:34:06.010Z,15.23
2023-02-07T20:36:41.215Z,10.23
2023-02-07T20:39:12.392Z,12.90
2023-02-07T20:41:41.888Z,12.70
2023-02-07T20:44:13.360Z,13.87
2023-02-07T20:46:46.611Z,14.80
2023-02-07T20:49:16.559Z,12.40
2023-02-07T20:51:45.315Z,12.90
2023-02-07T20:54:14.283Z,11.70
2023-02-07T20:56:44.596Z,14.10
2023-02-07T20:59:17.451Z,12.30
2023-02-07T21:01:46.153Z,14.70
2023-02-07T21:04:14.424Z,14.67
2023-02-07T21:06:45.879Z,8.93
2023-02-07T21:09:16.602Z,15.57
2023-02-07T21:11:47.382Z,11.50
2023-02-07T21:14:17.227Z,17.13
2023-02-07T21:16:46.153Z,13.80
2023-02-07T21:19:15.724Z,13.40
2023-02-07T21:21:47.179Z,16.20
2023-02-07T21:24:16.602Z,14.73
2023-02-07T21:26:47.772Z,14.23
2023-02-07T21:29:15.509Z,12.07
2023-02-07T21:31:44.440Z,21.30
2023-02-07T21:34:16.133Z,16.87
2023-02-07T21:36:45.344Z,15.13
2023-02-07T21:39:13.138Z,15.53
2023-02-07T21:41:44.226Z,11.93
2023-02-07T21:44:14.004Z,17.23
2023-02-07T21:46:44.328Z,18.03
2023-02-07T21:49:14.582Z,21.67
2023-02-07T21:51:44.680Z,18.33
2023-02-07T21:54:13.380Z,15.10
2023-02-07T21:56:44.476Z,17.57
2023-02-07T21:59:14.663Z,16.77
2023-02-07T22:01:42.888Z,15.67
2023-02-07T22:04:11.964Z,15.30
2023-02-07T22:06:42.691Z,15.20
2023-02-07T22:09:12.853Z,14.47
2023-02-07T22:11:42.893Z,13.67
2023-02-07T22:14:12.159Z,13.70
2023-02-07T22:16:40.317Z,15.13
2023-02-07T22:19:12.281Z,12.70
2023-02-07T22:21:40.516Z,14.27
2023-02-07T22:24:09.159Z,15.33
2023-02-07T22:26:37.436Z,18.90
2023-02-07T22:29:08.017Z,16.47
2023-02-07T22:31:38.667Z,18.23
2023-02-07T22:34:11.056Z,14.10
2023-02-07T22:36:43.953Z,13.93
2023-02-07T22:39:13.745Z,17.07
2023-02-07T22:41:41.777Z,17.80
2023-02-07T22:44:11.068Z,16.80
2023-02-07T22:46:39.491Z,17.60
2023-02-07T22:49:07.365Z,14.50
2023-02-07T22:51:36.744Z,18.20
2023-02-07T22:54:07.379Z,18.00
2023-02-07T22:56:37.940Z,21.17
2023-02-07T22:59:07.984Z,16.40
2023-02-07T23:01:40.177Z,15.97
2023-02-07T23:04:11.330Z,18.57
2023-02-07T23:06:40.470Z,20.13
2023-02-07T23:09:11.747Z,17.53
2023-02-07T23:11:40.061Z,16.20
2023-02-07T23:14:09.317Z,18.70
2023-02-07T23:16:40.382Z,12.33
2023-02-07T23:19:10.636Z,14.30
2023-02-07T23:21:39.472Z,14.07
2023-02-07T23:24:08.003Z,21.03
2023-02-07T23:26:36.703Z,13.80
2023-02-07T23:29:05.085Z,15.40
2023-02-07T23:31:34.152Z,14.83
2023-02-07T23:34:03.668Z,13.07
2023-02-07T23:36:32.017Z,15.60
2023-02-07T23:39:00.058Z,16.53
2023-02-07T23:41:28.742Z,15.60
2023-02-07T23:44:00.866Z,15.57
2023-02-07T23:46:30.375Z,14.47
2023-02-07T23:48:58.608Z,16.80
2023-02-07T23:51:30.098Z,17.33
2023-02-07T23:53:59.532Z,12.87
2023-02-07T23:56:28.075Z,18.20
2023-02-07T23:58:56.403Z,15.63
